Terminal Aerodrome Forecast
Issued by NWS Binghamton, NY

Home | Current Version | Previous Version | Text Only | Print | Product List | Glossary On
Versions: 1 2 3 4 5 6 7 8 9 10 11 12 13 14 15
491
FTUS41 KBGM 241724
TAFBGM
TAF
KBGM 241724Z 2418/2518 29006KT P6SM BKN250
     FM250100 15005KT P6SM BKN200
     FM250700 21005KT P6SM BKN050 PROB30 2515/2518 4SM -SHRA OVC025=

USA.gov is the U.S. government's official web portal to all federal, state and local government web resources and services.